Time;durP1;ratioP1;P1;durP2;ratioP2;P2;SDS_P1;SDS_P2;PMS_P1;PMS_P2;Temp;Humidity;BMP_temperature;BMP_pressure;BME280_temperature;BME280_humidity;BME280_pressure;Samples;Min_cycle;Max_cycle;Signal;HPM_P1;HPM_P2
2023/03/31 00:41:44;;;;;;;6.28;2.10;;;;;;;10.11;100.00;99716.03;5002549;28;20058;-88
2023/03/31 00:44:24;;;;;;;2.67;1.58;;;;;;;10.15;100.00;99714.22;4959183;28;20061;-90
2023/03/31 00:47:01;;;;;;;4.35;1.70;;;;;;;10.25;100.00;99705.28;4982598;28;20107;-89
2023/03/31 00:49:40;;;;;;;7.80;2.30;;;;;;;10.37;100.00;99709.41;4982376;28;20042;-88
2023/03/31 00:52:14;;;;;;;4.32;1.90;;;;;;;10.41;100.00;99704.03;4980427;28;20050;-90
2023/03/31 00:54:45;;;;;;;9.65;1.52;;;;;;;10.43;100.00;99704.88;4962431;28;20050;-90
2023/03/31 00:57:12;;;;;;;5.43;1.40;;;;;;;10.41;100.00;99697.97;4979839;28;20498;-89
2023/03/31 00:59:44;;;;;;;4.88;1.52;;;;;;;10.42;100.00;99699.69;4965520;28;20117;-88
2023/03/31 01:02:16;;;;;;;5.55;1.88;;;;;;;10.43;100.00;99689.19;4978366;28;20066;-88
2023/03/31 01:04:58;;;;;;;6.13;1.58;;;;;;;10.47;100.00;99689.97;4977298;28;20034;-86
2023/03/31 01:07:43;;;;;;;4.47;1.33;;;;;;;10.48;100.00;99678.63;4979384;28;20046;-88
2023/03/31 01:10:11;;;;;;;7.50;1.48;;;;;;;10.49;100.00;99679.47;4962634;28;20487;-89
2023/03/31 01:12:46;;;;;;;4.45;1.70;;;;;;;10.46;100.00;99677.78;4968771;28;20047;-90
2023/03/31 01:15:13;;;;;;;7.00;1.70;;;;;;;10.39;100.00;99670.97;4964408;28;20601;-88
2023/03/31 01:17:43;;;;;;;3.38;1.10;;;;;;;10.23;100.00;99673.06;4964329;28;20121;-87
2023/03/31 01:20:53;;;;;;;4.13;1.17;;;;;;;10.10;100.00;99670.75;4962735;28;20047;-87
2023/03/31 01:23:54;;;;;;;3.20;1.73;;;;;;;9.89;100.00;99651.13;4965656;28;20093;-86
2023/03/31 01:27:05;;;;;;;4.95;1.65;;;;;;;9.85;100.00;99646.03;4979627;28;20515;-90
2023/03/31 01:29:54;;;;;;;5.78;1.60;;;;;;;9.72;100.00;99635.84;4958763;28;20138;-87
2023/03/31 01:32:58;;;;;;;2.75;1.38;;;;;;;9.66;100.00;99641.22;4991774;28;20055;-89
2023/03/31 01:35:58;;;;;;;2.15;1.27;;;;;;;9.69;100.00;99635.91;4963923;28;20105;-89
2023/03/31 01:38:52;;;;;;;5.15;1.42;;;;;;;9.55;100.00;99628.34;4981085;28;20176;-90
2023/03/31 01:41:47;;;;;;;6.55;2.03;;;;;;;9.50;100.00;99630.19;4997557;28;20069;-86
2023/03/31 01:44:22;;;;;;;4.82;1.45;;;;;;;9.45;100.00;99629.44;4983192;28;20054;-89
2023/03/31 01:47:07;;;;;;;9.18;2.17;;;;;;;9.56;100.00;99619.63;4993016;28;20052;-89
2023/03/31 01:50:08;;;;;;;2.15;1.83;;;;;;;9.55;100.00;99611.84;4979459;28;20084;-88
2023/03/31 01:52:48;;;;;;;5.63;1.60;;;;;;;9.57;100.00;99610.91;4978476;28;20046;-89
2023/03/31 01:55:36;;;;;;;7.20;1.60;;;;;;;9.53;100.00;99606.66;4963909;28;20061;-91
2023/03/31 01:58:17;;;;;;;4.15;1.67;;;;;;;9.46;100.00;99594.59;4990073;28;20064;-89
2023/03/31 02:01:00;;;;;;;10.57;2.28;;;;;;;9.38;100.00;99594.75;4967895;28;20066;-89
2023/03/31 02:03:40;;;;;;;4.68;1.40;;;;;;;9.28;100.00;99585.38;4964182;28;20051;-87
2023/03/31 02:06:17;;;;;;;1.73;1.10;;;;;;;9.18;100.00;99581.28;4982821;28;20497;-86
2023/03/31 02:08:51;;;;;;;3.63;1.73;;;;;;;9.12;100.00;99573.56;4970730;28;20113;-90
2023/03/31 02:11:18;;;;;;;4.00;1.38;;;;;;;9.14;100.00;99575.25;4966322;28;20050;-88
2023/03/31 02:13:49;;;;;;;2.55;1.85;;;;;;;9.08;100.00;99573.59;4966267;28;20110;-88
2023/03/31 02:16:23;;;;;;;4.55;1.85;;;;;;;9.05;100.00;99571.06;4967911;28;20117;-87
2023/03/31 02:19:01;;;;;;;5.45;1.80;;;;;;;9.03;100.00;99567.63;4965866;28;20070;-87
2023/03/31 02:21:35;;;;;;;5.90;2.42;;;;;;;9.05;100.00;99571.06;4985577;28;20039;-88
2023/03/31 02:24:08;;;;;;;8.73;2.13;;;;;;;9.07;100.00;99563.19;4965098;28;20043;-87
2023/03/31 02:26:49;;;;;;;6.10;2.10;;;;;;;9.12;100.00;99556.13;4972750;28;20077;-89
2023/03/31 02:29:17;;;;;;;8.00;1.92;;;;;;;9.10;100.00;99553.56;4963291;28;20315;-89
2023/03/31 02:31:54;;;;;;;4.13;1.77;;;;;;;9.13;100.00;99557.88;4969367;28;20053;-89
2023/03/31 02:34:21;;;;;;;8.15;2.15;;;;;;;9.24;100.00;99558.50;4970591;28;20054;-87
2023/03/31 02:36:50;;;;;;;3.47;1.98;;;;;;;9.33;100.00;99546.13;4968727;28;20153;-89
2023/03/31 02:39:26;;;;;;;4.82;1.55;;;;;;;9.33;100.00;99539.16;4967304;28;20109;-88
2023/03/31 02:41:54;;;;;;;3.10;1.73;;;;;;;9.35;100.00;99539.97;4988736;28;20054;-88
2023/03/31 02:44:21;;;;;;;6.07;1.77;;;;;;;9.29;100.00;99539.25;4970477;28;20050;-90
2023/03/31 02:46:49;;;;;;;7.78;2.33;;;;;;;9.24;100.00;99529.78;4987712;28;20034;-87
2023/03/31 02:49:20;;;;;;;5.13;2.38;;;;;;;9.20;100.00;99524.66;4963027;28;20046;-89
2023/03/31 02:52:23;;;;;;;11.05;2.70;;;;;;;9.20;100.00;99525.50;4982692;28;20455;-88
2023/03/31 02:55:26;;;;;;;2.28;1.58;;;;;;;9.17;100.00;99522.09;4969666;28;20043;-89
2023/03/31 02:58:22;;;;;;;7.32;1.75;;;;;;;9.20;100.00;99514.19;4994401;28;20035;-87
2023/03/31 03:01:41;;;;;;;6.80;1.92;;;;;;;9.22;100.00;99513.28;4988933;28;20126;-89
2023/03/31 03:05:01;;;;;;;3.05;1.33;;;;;;;9.24;100.00;99511.50;4958989;28;20055;-90
2023/03/31 03:07:53;;;;;;;4.53;1.35;;;;;;;9.28;100.00;99507.03;4986419;28;20038;-89
2023/03/31 03:10:44;;;;;;;7.00;1.45;;;;;;;9.32;100.00;99511.34;4973101;28;20080;-88
2023/03/31 03:13:26;;;;;;;5.07;1.10;;;;;;;9.42;100.00;99504.97;4986403;28;20054;-88
2023/03/31 03:16:01;;;;;;;4.45;1.85;;;;;;;9.39;100.00;99507.69;4972112;28;20057;-89
2023/03/31 03:18:29;;;;;;;5.35;1.30;;;;;;;9.34;100.00;99498.22;4968126;28;20494;-87
2023/03/31 03:20:55;;;;;;;2.50;0.85;;;;;;;9.29;100.00;99503.56;4980667;28;20405;-90
2023/03/31 03:23:22;;;;;;;7.20;1.70;;;;;;;9.24;100.00;99492.34;4962805;28;20054;-88
2023/03/31 03:25:49;;;;;;;3.65;0.98;;;;;;;9.24;100.00;99487.13;4965181;28;20090;-90
2023/03/31 03:28:17;;;;;;;7.05;1.15;;;;;;;9.19;100.00;99478.53;4978935;28;20086;-90
2023/03/31 03:30:43;;;;;;;8.23;1.63;;;;;;;9.14;100.00;99477.78;4966620;28;20046;-90
2023/03/31 03:33:15;;;;;;;6.00;0.80;;;;;;;9.07;100.00;99477.94;4972195;28;20060;-87
2023/03/31 03:35:43;;;;;;;4.22;1.63;;;;;;;9.01;100.00;99466.72;4968032;28;20042;-88
2023/03/31 03:38:10;;;;;;;7.80;1.30;;;;;;;8.98;100.00;99465.03;4971996;28;20051;-88
2023/03/31 03:40:37;;;;;;;3.92;1.00;;;;;;;8.93;100.00;99461.72;4987519;28;20054;-87
2023/03/31 03:43:04;;;;;;;2.17;0.70;;;;;;;8.90;100.00;99466.97;4988602;28;20059;-87
2023/03/31 03:45:32;;;;;;;3.75;1.27;;;;;;;8.85;100.00;99453.16;4962920;28;20098;-86
2023/03/31 03:47:59;;;;;;;2.33;1.20;;;;;;;8.87;100.00;99447.03;4979880;28;20050;-88
2023/03/31 03:50:25;;;;;;;3.90;1.08;;;;;;;8.85;100.00;99440.13;4984593;28;20051;-90
2023/03/31 03:52:57;;;;;;;1.27;0.70;;;;;;;8.81;100.00;99434.09;5005306;28;20042;-89
2023/03/31 03:55:24;;;;;;;4.65;1.63;;;;;;;8.78;100.00;99434.16;4971477;28;20058;-88
2023/03/31 03:57:54;;;;;;;6.18;1.48;;;;;;;8.70;100.00;99426.50;4992213;28;20042;-88
2023/03/31 04:00:21;;;;;;;3.40;1.45;;;;;;;8.67;100.00;99415.25;4977375;28;20073;-88
2023/03/31 04:02:48;;;;;;;2.50;1.10;;;;;;;8.63;100.00;99409.28;4987432;28;20130;-86
2023/03/31 04:05:14;;;;;;;7.65;1.38;;;;;;;8.61;100.00;99411.88;4979796;28;20064;-90
2023/03/31 04:07:42;;;;;;;4.75;1.38;;;;;;;8.61;100.00;99400.59;4987604;28;20041;-87
2023/03/31 04:10:09;;;;;;;4.50;1.42;;;;;;;8.61;100.00;99403.22;4965985;28;20093;-90
2023/03/31 04:12:36;;;;;;;5.07;1.20;;;;;;;8.62;100.00;99399.72;4981213;28;20098;-86
2023/03/31 04:15:04;;;;;;;3.72;1.08;;;;;;;8.63;100.00;99396.22;4978867;28;20489;-88
2023/03/31 04:17:33;;;;;;;2.17;1.60;;;;;;;8.65;100.00;99386.59;4990916;28;20048;-87
2023/03/31 04:20:10;;;;;;;1.33;1.00;;;;;;;8.72;100.00;99374.28;4975581;28;20141;-89
2023/03/31 04:22:40;;;;;;;3.20;1.15;;;;;;;8.78;100.00;99379.38;4976028;28;20043;-86
2023/03/31 04:25:15;;;;;;;5.45;0.95;;;;;;;8.84;100.00;99374.03;4972594;28;20074;-87
2023/03/31 04:27:54;;;;;;;2.58;0.43;;;;;;;8.82;100.00;99367.97;4975072;28;20039;-89
2023/03/31 04:30:24;;;;;;;2.45;1.30;;;;;;;8.81;100.00;99357.56;4989519;28;20114;-89
2023/03/31 04:32:54;;;;;;;9.32;2.47;;;;;;;8.80;100.00;99348.91;4992915;28;20026;-88
2023/03/31 04:35:47;;;;;;;3.80;1.23;;;;;;;8.80;100.00;99341.06;4983776;28;20118;-87
2023/03/31 04:38:17;;;;;;;4.05;1.00;;;;;;;8.80;100.00;99335.84;4992757;28;20100;-89
2023/03/31 04:40:53;;;;;;;2.88;0.68;;;;;;;8.81;100.00;99321.03;4963871;28;20271;-89
2023/03/31 04:43:28;;;;;;;6.07;2.10;;;;;;;8.85;100.00;99322.69;4988135;28;20057;-88
2023/03/31 04:45:58;;;;;;;7.70;1.25;;;;;;;8.87;100.00;99319.16;4973901;28;20069;-90
2023/03/31 04:48:29;;;;;;;4.85;1.17;;;;;;;8.88;100.00;99313.03;4988375;28;20046;-89
2023/03/31 04:50:56;;;;;;;3.80;0.98;;;;;;;8.91;100.00;99301.66;4988950;28;20046;-87
2023/03/31 04:53:28;;;;;;;7.10;1.85;;;;;;;8.94;100.00;99292.03;4970287;28;20058;-86
2023/03/31 04:55:58;;;;;;;2.03;0.85;;;;;;;9.00;100.00;99293.63;4985987;28;20045;-89
2023/03/31 04:58:26;;;;;;;4.43;1.35;;;;;;;9.03;100.00;99285.69;4972757;28;20034;-90
2023/03/31 05:00:57;;;;;;;5.35;1.13;;;;;;;9.08;100.00;99282.97;4979603;28;20101;-87
2023/03/31 05:06:35;;;;;;;3.42;1.60;;;;;;;9.10;100.00;99257.72;4974779;28;20038;-87
2023/03/31 05:09:02;;;;;;;7.20;3.92;;;;;;;9.09;100.00;99263.81;4989079;28;20046;-89
2023/03/31 05:11:40;;;;;;;6.05;1.45;;;;;;;9.07;100.00;99263.88;4991758;28;20046;-87
2023/03/31 05:14:08;;;;;;;3.67;1.30;;;;;;;9.06;100.00;99264.75;4994183;28;20072;-88
2023/03/31 05:16:44;;;;;;;3.40;1.10;;;;;;;9.06;100.00;99256.94;4956052;28;20027;-87
2023/03/31 05:19:17;;;;;;;2.13;1.10;;;;;;;9.08;100.00;99262.09;4955226;28;20078;-87
2023/03/31 05:21:46;;;;;;;2.55;1.30;;;;;;;9.09;100.00;99254.22;4952989;28;20066;-90
2023/03/31 05:24:14;;;;;;;4.18;1.13;;;;;;;9.14;100.00;99254.13;4965172;28;20055;-86
2023/03/31 05:26:51;;;;;;;3.33;0.90;;;;;;;9.20;100.00;99259.16;4970624;28;20082;-88
2023/03/31 05:30:09;;;;;;;4.03;1.25;;;;;;;9.27;100.00;99255.50;4951745;29;20093;-90
2023/03/31 05:32:42;;;;;;;10.43;3.05;;;;;;;9.35;100.00;99260.53;4956669;28;20138;-86
2023/03/31 05:35:10;;;;;;;0.82;0.82;;;;;;;9.38;100.00;99263.06;4946213;28;20051;-86
2023/03/31 05:37:37;;;;;;;3.03;0.95;;;;;;;9.42;100.00;99250.78;4969758;28;20170;-88
2023/03/31 05:40:04;;;;;;;3.80;1.10;;;;;;;9.46;100.00;99248.94;4949725;28;20429;-88
2023/03/31 05:42:31;;;;;;;1.83;0.70;;;;;;;9.48;100.00;99244.53;4938501;28;20047;-85
2023/03/31 05:44:58;;;;;;;8.65;1.58;;;;;;;9.51;100.00;99247.06;4969555;28;20513;-89
2023/03/31 05:47:25;;;;;;;1.42;0.82;;;;;;;9.51;100.00;99250.53;4961563;28;20053;-91
2023/03/31 05:49:54;;;;;;;1.92;1.00;;;;;;;9.52;100.00;99251.41;4962700;28;20043;-91
2023/03/31 05:52:22;;;;;;;5.60;1.17;;;;;;;9.49;100.00;99244.50;4966640;28;20142;-89
2023/03/31 05:54:51;;;;;;;6.55;1.10;;;;;;;9.50;100.00;99245.34;4954647;28;20044;-89
2023/03/31 05:57:19;;;;;;;2.53;0.85;;;;;;;9.49;100.00;99247.13;4956718;28;20113;-89
2023/03/31 05:59:46;;;;;;;2.45;0.82;;;;;;;9.51;100.00;99245.28;4953776;28;20042;-89
2023/03/31 06:02:16;;;;;;;5.55;0.88;;;;;;;9.51;100.00;99240.06;4958079;28;20108;-90
2023/03/31 06:04:43;;;;;;;6.60;0.93;;;;;;;9.51;100.00;99231.41;4976456;28;20047;-92
2023/03/31 06:07:10;;;;;;;4.20;0.93;;;;;;;9.50;100.00;99221.84;4975876;28;20051;-86
2023/03/31 06:09:36;;;;;;;5.72;1.00;;;;;;;9.50;100.00;99220.06;4944091;28;20063;-90
2023/03/31 06:12:07;;;;;;;2.35;0.77;;;;;;;9.52;100.00;99217.44;4946286;28;20046;-88
2023/03/31 06:14:36;;;;;;;7.90;1.42;;;;;;;9.53;100.00;99214.78;4945271;28;20478;-92
2023/03/31 06:17:03;;;;;;;5.57;2.35;;;;;;;9.54;100.00;99221.72;4946712;28;20051;-89
2023/03/31 06:19:41;;;;;;;3.92;0.60;;;;;;;9.54;100.00;99207.78;4966741;28;20082;-86
2023/03/31 06:22:07;;;;;;;5.50;1.20;;;;;;;9.54;100.00;99208.66;4950785;28;20262;-89
2023/03/31 06:24:40;;;;;;;3.10;0.63;;;;;;;9.58;100.00;99207.66;4963013;28;20414;-87
2023/03/31 06:27:07;;;;;;;5.63;1.20;;;;;;;9.61;100.00;99196.28;4952880;28;20065;-85
2023/03/31 06:29:42;;;;;;;3.80;0.80;;;;;;;9.64;100.00;99196.19;4967185;28;20062;-90
2023/03/31 06:32:17;;;;;;;7.88;4.43;;;;;;;9.69;100.00;99196.91;4973863;28;20030;-91
2023/03/31 06:35:05;;;;;;;3.85;1.13;;;;;;;9.72;100.00;99201.19;4985132;28;20051;-90
2023/03/31 06:37:51;;;;;;;4.53;0.70;;;;;;;9.74;100.00;99199.41;4979656;28;20033;-87
2023/03/31 06:40:24;;;;;;;4.07;0.75;;;;;;;9.75;100.00;99188.91;4961324;28;20066;-89
2023/03/31 06:42:56;;;;;;;7.72;1.13;;;;;;;9.75;100.00;99190.63;4984055;28;20046;-88
2023/03/31 06:45:27;;;;;;;4.30;1.08;;;;;;;9.74;100.00;99192.41;4956139;28;20439;-90
2023/03/31 06:48:03;;;;;;;1.67;1.10;;;;;;;9.75;100.00;99190.63;4969073;28;20302;-92
2023/03/31 06:50:32;;;;;;;1.90;1.05;;;;;;;9.74;100.00;99191.56;4951757;28;20047;-91
2023/03/31 06:53:07;;;;;;;6.35;1.55;;;;;;;9.72;100.00;99188.13;4983084;28;20046;-92
2023/03/31 06:55:35;;;;;;;15.52;1.70;;;;;;;9.69;100.00;99183.00;4947479;28;20134;-91
2023/03/31 06:58:10;;;;;;;9.90;3.15;;;;;;;9.67;100.00;99185.63;4964831;28;20051;-91
2023/03/31 07:00:39;;;;;;;7.75;1.17;;;;;;;9.64;100.00;99175.28;4980241;28;20054;-92
2023/03/31 07:03:07;;;;;;;5.05;1.10;;;;;;;9.63;100.00;99177.94;4963369;28;20086;-90
2023/03/31 07:05:37;;;;;;;7.82;1.40;;;;;;;9.60;100.00;99168.44;4952415;28;20050;-91
2023/03/31 07:08:16;;;;;;;2.80;1.05;;;;;;;9.58;100.00;99173.72;4951235;28;20138;-92
2023/03/31 07:10:47;;;;;;;3.13;1.35;;;;;;;9.57;100.00;99161.53;4953762;28;20043;-90
2023/03/31 07:13:19;;;;;;;6.43;1.95;;;;;;;9.55;100.00;99157.25;4943181;28;20051;-90
2023/03/31 07:15:53;;;;;;;3.55;1.77;;;;;;;9.56;100.00;99145.91;4951177;28;20053;-91
2023/03/31 07:18:24;;;;;;;3.95;1.50;;;;;;;9.57;100.00;99151.09;4955232;28;20070;-91
2023/03/31 07:20:56;;;;;;;16.23;1.83;;;;;;;9.58;100.00;99137.13;4948030;28;20049;-91
2023/03/31 07:23:24;;;;;;;1.40;1.10;;;;;;;9.60;100.00;99145.75;4964947;28;20114;-92
2023/03/31 07:25:51;;;;;;;4.78;1.05;;;;;;;9.63;100.00;99149.19;4946008;28;20078;-91
2023/03/31 07:28:19;;;;;;;4.78;1.05;;;;;;;9.62;100.00;99142.25;4952328;28;20617;-91
2023/03/31 07:30:48;;;;;;;5.72;1.52;;;;;;;9.62;100.00;99142.25;4934456;28;20053;-89
2023/03/31 07:33:19;;;;;;;7.85;1.30;;;;;;;9.60;100.00;99147.53;4980957;28;20082;-93
2023/03/31 07:35:59;;;;;;;7.53;1.50;;;;;;;9.59;100.00;99143.19;4968269;28;20073;-93
2023/03/31 07:38:26;;;;;;;9.43;1.38;;;;;;;9.60;100.00;99134.47;4951576;28;20046;-91
2023/03/31 07:40:53;;;;;;;6.75;1.13;;;;;;;9.62;100.00;99131.81;4956922;28;20059;-92
2023/03/31 07:43:24;;;;;;;5.07;1.13;;;;;;;9.64;100.00;99127.41;4952230;28;20045;-91
2023/03/31 07:46:04;;;;;;;5.18;1.35;;;;;;;9.68;100.00;99116.81;4955021;28;20054;-90
2023/03/31 07:48:45;;;;;;;5.68;1.33;;;;;;;9.75;100.00;99113.13;4961342;28;20046;-90
2023/03/31 07:51:42;;;;;;;2.20;1.30;;;;;;;9.86;100.00;99106.69;4969587;28;20066;-88
2023/03/31 07:54:37;;;;;;;6.43;0.75;;;;;;;9.93;100.00;99097.75;4979203;28;20035;-92
2023/03/31 07:57:38;;;;;;;4.40;0.90;;;;;;;9.99;100.00;99088.88;4970545;28;20102;-89
2023/03/31 08:00:42;;;;;;;2.28;1.58;;;;;;;10.13;100.00;99085.81;4943568;28;20035;-90
2023/03/31 08:07:20;;;;;;;4.00;0.93;;;;;;;10.27;100.00;99062.66;4972665;28;20051;-89
2023/03/31 08:16:22;;;;;;;4.10;0.93;;;;;;;10.33;100.00;99046.78;5012590;23;20106;-86
2023/03/31 08:18:49;;;;;;;2.10;0.90;;;;;;;10.27;100.00;99034.78;4952775;28;20054;-77
2023/03/31 08:21:16;;;;;;;1.92;0.77;;;;;;;10.22;100.00;99034.06;4949692;29;20130;-81
2023/03/31 08:23:42;;;;;;;2.13;1.23;;;;;;;10.22;100.00;99034.06;4935235;29;20043;-77
2023/03/31 08:26:16;;;;;;;2.65;0.98;;;;;;;10.30;100.00;99027.72;4948590;29;20053;-79
2023/03/31 08:28:43;;;;;;;2.55;0.70;;;;;;;10.47;100.00;99030.66;4930154;29;20039;-77
2023/03/31 08:31:10;;;;;;;6.68;1.23;;;;;;;10.63;100.00;99022.28;4960338;28;20054;-83
2023/03/31 08:33:37;;;;;;;2.88;1.35;;;;;;;10.86;100.00;99013.56;4928735;29;20039;-78
2023/03/31 08:36:07;;;;;;;3.33;1.05;;;;;;;11.06;100.00;99016.31;4940257;29;20059;-80
2023/03/31 08:38:40;;;;;;;6.20;0.88;;;;;;;11.23;100.00;99010.44;4942349;29;20495;-81
2023/03/31 08:41:18;;;;;;;2.95;0.63;;;;;;;11.35;100.00;99016.97;4941953;29;20126;-81
2023/03/31 08:43:48;;;;;;;3.38;0.95;;;;;;;11.42;100.00;99017.63;4946634;29;20051;-83
2023/03/31 08:46:20;;;;;;;2.75;1.30;;;;;;;11.44;100.00;99015.78;4946168;29;20099;-79
2023/03/31 08:48:53;;;;;;;6.15;1.42;;;;;;;11.41;100.00;99006.25;4951334;29;20049;-81
2023/03/31 08:51:28;;;;;;;2.40;1.08;;;;;;;11.37;100.00;98999.44;4939669;28;20054;-82
2023/03/31 08:54:09;;;;;;;3.47;0.95;;;;;;;11.34;100.00;98998.69;4948968;28;20107;-81
2023/03/31 08:56:40;;;;;;;2.10;0.90;;;;;;;11.35;100.00;98996.00;4943465;28;20047;-78
2023/03/31 08:59:26;;;;;;;4.13;1.08;;;;;;;11.37;100.00;98996.81;4931889;29;20061;-78
2023/03/31 09:02:04;;;;;;;2.92;0.90;;;;;;;11.34;100.00;98998.69;4943943;29;20115;-83
2023/03/31 09:05:17;;;;;;;3.90;1.10;;;;;;;11.21;100.00;98999.19;4939938;29;20055;-80
2023/03/31 09:08:19;;;;;;;4.90;1.90;;;;;;;11.08;100.00;98993.56;4948945;29;20044;-79
2023/03/31 09:11:13;;;;;;;1.85;1.50;;;;;;;10.94;100.00;98990.59;4938303;29;20063;-79
2023/03/31 09:14:13;;;;;;;2.80;1.27;;;;;;;10.81;100.00;98995.44;4960093;28;20050;-77
2023/03/31 09:17:13;;;;;;;2.58;0.80;;;;;;;10.74;100.00;98988.69;4932156;29;20485;-83
2023/03/31 09:22:23;;;;;;;2.97;0.80;;;;;;;10.60;100.00;98981.38;5011223;23;20387;-76
2023/03/31 09:25:16;;;;;;;5.57;0.50;;;;;;;10.48;100.00;98974.81;4969729;28;20043;-88
2023/03/31 09:27:46;;;;;;;2.17;0.50;;;;;;;10.38;100.00;98969.03;4983721;28;20042;-77
2023/03/31 09:32:41;;;;;;;3.15;1.00;;;;;;;10.35;100.00;98963.03;4957386;28;20055;-79
2023/03/31 09:35:24;;;;;;;3.83;0.85;;;;;;;10.34;100.00;98963.94;4924045;29;20474;-77
2023/03/31 09:37:53;;;;;;;4.43;2.28;;;;;;;10.35;100.00;98966.53;4935799;29;20058;-78
2023/03/31 09:40:24;;;;;;;1.30;0.98;;;;;;;10.34;100.00;98961.31;4924610;29;20048;-78
2023/03/31 09:43:02;;;;;;;4.28;0.80;;;;;;;10.33;100.00;98960.47;4936631;29;20046;-79
2023/03/31 09:45:32;;;;;;;2.10;0.73;;;;;;;10.30;100.00;98955.34;4941991;28;20061;-79
2023/03/31 09:48:10;;;;;;;1.05;0.55;;;;;;;10.32;100.00;98955.28;4945491;28;20062;-78
2023/03/31 09:50:46;;;;;;;2.47;1.17;;;;;;;10.30;100.00;98952.75;4951121;28;20043;-81
2023/03/31 09:53:24;;;;;;;3.22;0.55;;;;;;;10.30;100.00;98955.34;4943339;29;20138;-79
2023/03/31 09:56:01;;;;;;;7.55;0.85;;;;;;;10.34;100.00;98948.22;4937124;29;20039;-79
2023/03/31 09:58:27;;;;;;;4.18;0.50;;;;;;;10.37;100.00;98945.56;4937647;29;20039;-80
2023/03/31 10:01:02;;;;;;;2.72;1.17;;;;;;;10.40;100.00;98942.81;4939001;28;20504;-79
2023/03/31 10:03:35;;;;;;;3.60;0.60;;;;;;;10.44;100.00;98936.56;4943765;28;20047;-80
2023/03/31 10:06:10;;;;;;;0.68;0.45;;;;;;;10.50;100.00;98927.66;4960595;28;20122;-79
2023/03/31 10:08:54;;;;;;;1.17;0.47;;;;;;;10.57;100.00;98936.97;4937681;29;20050;-78
2023/03/31 10:11:23;;;;;;;3.83;1.25;;;;;;;10.60;100.00;98923.81;4947174;29;20050;-78
2023/03/31 10:13:59;;;;;;;3.92;0.47;;;;;;;10.70;100.00;98929.53;4943774;29;20051;-78
2023/03/31 10:16:31;;;;;;;1.48;0.38;;;;;;;10.64;100.00;98933.25;4931773;29;20106;-77
2023/03/31 10:19:22;;;;;;;1.58;0.77;;;;;;;10.62;100.00;98926.34;4940788;29;20055;-77
2023/03/31 10:22:03;;;;;;;2.75;1.20;;;;;;;10.58;100.00;98930.84;4922610;29;20522;-78
2023/03/31 10:24:42;;;;;;;0.60;0.45;;;;;;;10.57;100.00;98927.38;4906104;29;20514;-84
2023/03/31 10:27:26;;;;;;;0.43;0.28;;;;;;;10.55;100.00;98931.81;4931080;29;20495;-80
2023/03/31 10:29:59;;;;;;;2.60;0.90;;;;;;;10.53;100.00;98927.53;4930959;29;20050;-79
2023/03/31 10:32:29;;;;;;;2.13;1.00;;;;;;;10.52;100.00;98931.06;4926104;29;20111;-83
2023/03/31 10:35:05;;;;;;;1.63;0.40;;;;;;;10.54;100.00;98931.88;4918615;29;20379;-79
2023/03/31 10:37:34;;;;;;;1.75;0.57;;;;;;;10.58;100.00;98917.75;4899024;29;20078;-79
2023/03/31 10:40:25;;;;;;;1.20;0.60;;;;;;;10.61;100.00;98922.03;4908886;29;20049;-78
2023/03/31 10:43:03;;;;;;;0.30;0.30;;;;;;;10.60;100.00;98921.19;4897755;29;20494;-79
2023/03/31 10:45:38;;;;;;;3.05;0.40;;;;;;;10.60;100.00;98926.41;4902152;29;20048;-78
2023/03/31 10:48:09;;;;;;;1.02;0.30;;;;;;;10.64;100.00;98919.28;4899353;29;20132;-77
2023/03/31 10:50:36;;;;;;;0.80;0.60;;;;;;;10.62;100.00;98921.97;4884652;29;20040;-80
2023/03/31 10:53:12;;;;;;;2.60;0.65;;;;;;;10.65;100.00;98921.88;4918743;29;20036;-78
2023/03/31 10:56:19;;;;;;;0.90;0.43;;;;;;;10.65;100.00;98919.25;4917254;29;20048;-78
2023/03/31 10:59:11;;;;;;;1.95;0.45;;;;;;;10.69;100.00;98922.59;4915948;29;20123;-80
2023/03/31 11:01:55;;;;;;;2.75;0.38;;;;;;;10.71;100.00;98920.78;4915218;29;20044;-79
2023/03/31 11:09:12;;;;;;;0.17;0.13;;;;;;;10.68;100.00;98920.91;4914192;29;20052;-78
2023/03/31 11:41:16;;;;;;;1.67;0.70;;;;;;;10.71;100.00;98910.31;4949029;29;20422;-82
2023/03/31 11:43:53;;;;;;;2.10;0.47;;;;;;;10.65;100.00;98903.56;4933274;29;20062;-82
2023/03/31 11:46:36;;;;;;;1.15;0.32;;;;;;;10.62;100.00;98894.97;4936959;29;20516;-83
2023/03/31 11:49:20;;;;;;;0.55;0.40;;;;;;;10.57;100.00;98896.00;4930390;29;20035;-78
2023/03/31 11:52:14;;;;;;;1.27;0.63;;;;;;;10.54;100.00;98892.63;4950765;29;20100;-79
2023/03/31 11:54:54;;;;;;;;;;;;;;;10.62;100.00;98892.34;4928997;29;20040;-82
2023/03/31 11:57:38;;;;;;;3.00;0.60;;;;;;;10.71;100.00;98889.38;4926356;29;19992;-78
2023/03/31 12:00:22;;;;;;;2.85;0.73;;;;;;;10.75;100.00;98896.19;4935061;29;20071;-79
2023/03/31 12:03:11;;;;;;;2.53;0.38;;;;;;;10.82;100.00;98895.06;4949532;29;20047;-79
2023/03/31 12:05:45;;;;;;;2.00;0.47;;;;;;;10.96;100.00;98896.28;4933038;29;20039;-87
2023/03/31 12:08:22;;;;;;;1.63;0.40;;;;;;;11.08;100.00;98883.56;4935005;29;20039;-82
2023/03/31 12:11:06;;;;;;;1.17;0.50;;;;;;;11.20;100.00;98878.78;4929649;29;20501;-78
2023/03/31 12:14:27;;;;;;;2.03;0.45;;;;;;;11.53;100.00;98876.53;4924477;29;20067;-81
2023/03/31 12:17:05;;;;;;;1.27;0.20;;;;;;;11.74;100.00;98872.13;4942457;29;20040;-77
2023/03/31 12:32:40;;;;;;;2.60;0.68;;;;;;;12.57;96.20;98840.59;5391740;23;20055;-82
2023/03/31 12:35:38;;;;;;;1.05;0.40;;;;;;;12.55;96.42;98842.41;4953255;28;20113;-79
2023/03/31 12:38:51;;;;;;;2.80;0.40;;;;;;;12.60;95.01;98832.56;4964645;28;20051;-80
2023/03/31 12:42:19;;;;;;;1.27;0.73;;;;;;;12.84;94.98;98832.31;4939195;28;20054;-79
2023/03/31 12:45:08;;;;;;;0.22;0.22;;;;;;;13.25;93.53;98829.47;4960279;28;20050;-79
2023/03/31 12:48:11;;;;;;;11.23;1.00;;;;;;;13.97;88.30;98825.00;4950123;28;20122;-78
2023/03/31 12:51:01;;;;;;;0.63;0.57;;;;;;;14.81;84.17;98817.91;4962188;28;20482;-78
2023/03/31 12:53:58;;;;;;;1.35;0.20;;;;;;;14.88;82.38;98812.22;4922420;29;20373;-79
2023/03/31 12:56:25;;;;;;;1.17;0.57;;;;;;;15.19;82.30;98805.19;4968849;28;20046;-79
2023/03/31 12:58:51;;;;;;;1.45;0.60;;;;;;;15.30;81.51;98806.38;4957046;28;20062;-79
2023/03/31 13:01:28;;;;;;;0.85;0.40;;;;;;;15.35;80.44;98791.97;4939833;28;20051;-80
2023/03/31 13:04:20;;;;;;;1.00;0.70;;;;;;;15.30;79.39;98794.03;4941958;29;20044;-78
2023/03/31 13:06:55;;;;;;;2.00;0.60;;;;;;;15.52;81.12;98792.78;4959123;28;20042;-79
2023/03/31 13:09:22;;;;;;;2.17;0.55;;;;;;;15.73;78.96;98787.16;4940657;28;20142;-80
2023/03/31 13:11:49;;;;;;;1.73;0.73;;;;;;;15.56;76.32;98791.66;4953493;28;20125;-79
2023/03/31 13:14:21;;;;;;;4.65;0.50;;;;;;;15.36;79.04;98795.47;4955862;28;20046;-85
2023/03/31 13:16:50;;;;;;;3.92;0.68;;;;;;;15.42;77.57;98784.53;4948112;28;20478;-79
2023/03/31 13:21:56;;;;;;;1.92;0.50;;;;;;;15.27;76.95;98781.03;5315000;23;20062;-80
2023/03/31 13:24:24;;;;;;;5.50;1.35;;;;;;;14.72;78.97;98785.88;4940903;28;20454;-80
2023/03/31 13:26:55;;;;;;;1.63;0.50;;;;;;;14.32;81.44;98793.31;4951509;28;20050;-79
2023/03/31 13:29:26;;;;;;;3.60;0.50;;;;;;;13.85;82.81;98784.41;4945150;28;20079;-84
2023/03/31 13:32:01;;;;;;;2.92;0.90;;;;;;;13.53;84.53;98791.31;4959550;28;20070;-79
2023/03/31 13:34:35;;;;;;;3.67;0.68;;;;;;;13.14;85.31;98792.38;4959490;28;20450;-79
2023/03/31 13:37:19;;;;;;;2.53;0.75;;;;;;;12.80;87.20;98789.63;4951549;28;20505;-83
2023/03/31 13:40:28;;;;;;;3.30;0.82;;;;;;;12.76;88.41;98793.31;4962466;28;20142;-79
2023/03/31 13:43:19;;;;;;;2.88;0.70;;;;;;;12.71;88.63;98793.53;4962600;29;20039;-78
2023/03/31 13:46:22;;;;;;;3.90;1.50;;;;;;;12.66;89.57;98789.41;4942591;28;20046;-80
2023/03/31 13:49:35;;;;;;;4.85;0.85;;;;;;;12.65;90.16;98785.09;4954384;28;20043;-80
2023/03/31 13:52:04;;;;;;;2.85;0.98;;;;;;;12.62;91.41;98780.84;4937880;29;20050;-79
2023/03/31 13:54:49;;;;;;;3.78;1.15;;;;;;;12.53;91.12;98776.88;4938154;29;20043;-79
2023/03/31 13:57:38;;;;;;;7.80;0.73;;;;;;;12.26;91.08;98780.81;4972436;28;20116;-78
2023/03/31 14:00:32;;;;;;;4.03;1.02;;;;;;;12.05;93.26;98786.94;4967026;28;20058;-82
2023/03/31 14:03:26;;;;;;;4.57;0.90;;;;;;;12.01;94.99;98785.38;4954783;28;20081;-79
2023/03/31 14:06:17;;;;;;;2.70;0.73;;;;;;;12.07;96.36;98779.00;4956126;28;20059;-78
2023/03/31 14:08:52;;;;;;;2.70;0.90;;;;;;;12.04;95.44;98779.97;4937742;29;20318;-78